createdAt,value
2019-03-29T00:00:08.585Z,92.60
2019-03-29T00:02:37.015Z,92.80
2019-03-29T00:05:05.717Z,92.80
2019-03-29T00:07:39.842Z,93.10
2019-03-29T00:10:06.346Z,93.30
2019-03-29T00:12:34.785Z,93.40
2019-03-29T00:15:03.392Z,93.10
2019-03-29T00:17:31.819Z,93.30
2019-03-29T00:20:00.338Z,93.30
2019-03-29T00:22:28.783Z,93.10
2019-03-29T00:24:57.232Z,92.90
2019-03-29T00:27:25.714Z,93.10
2019-03-29T00:29:54.143Z,92.90
2019-03-29T00:32:22.573Z,93.00
2019-03-29T00:34:51.016Z,93.20
2019-03-29T00:37:19.506Z,93.20
2019-03-29T00:39:47.955Z,93.20
2019-03-29T00:42:17.160Z,93.20
2019-03-29T00:44:45.898Z,93.20
2019-03-29T00:47:14.361Z,93.20
2019-03-29T00:49:43.109Z,92.90
2019-03-29T00:52:11.608Z,93.10
2019-03-29T00:54:40.062Z,93.00
2019-03-29T00:57:08.496Z,93.10
2019-03-29T00:59:36.942Z,93.10
2019-03-29T01:02:05.366Z,93.10
2019-03-29T01:04:33.802Z,93.10
2019-03-29T01:07:02.261Z,93.00
2019-03-29T01:09:30.881Z,93.20
2019-03-29T01:11:59.438Z,93.10
2019-03-29T01:14:27.861Z,93.10
2019-03-29T01:16:56.304Z,93.10
2019-03-29T01:19:24.753Z,93.10
2019-03-29T01:21:53.203Z,93.10
2019-03-29T01:24:21.672Z,92.90
2019-03-29T01:26:50.099Z,93.00
2019-03-29T01:29:18.529Z,93.00
2019-03-29T01:31:47.002Z,92.80
2019-03-29T01:34:15.426Z,93.10
2019-03-29T01:36:43.862Z,93.10
2019-03-29T01:39:12.321Z,93.00
2019-03-29T01:41:40.743Z,93.10
2019-03-29T01:44:09.208Z,93.10
2019-03-29T01:46:38.108Z,92.90
2019-03-29T01:49:06.856Z,93.10
2019-03-29T01:51:35.313Z,93.10
2019-03-29T01:54:04.225Z,93.30
2019-03-29T01:56:32.848Z,93.20
2019-03-29T01:59:01.286Z,93.30
2019-03-29T02:01:29.713Z,93.30
2019-03-29T02:03:58.157Z,93.20
2019-03-29T02:06:26.613Z,93.50
2019-03-29T02:08:55.052Z,93.10
2019-03-29T02:11:23.566Z,93.20
2019-03-29T02:13:52.173Z,93.10
2019-03-29T02:16:20.614Z,93.30
2019-03-29T02:18:49.061Z,93.10
2019-03-29T02:21:17.889Z,93.20
2019-03-29T02:23:46.318Z,93.30
2019-03-29T02:26:14.758Z,93.20
2019-03-29T02:28:43.280Z,93.20
2019-03-29T02:31:11.799Z,93.40
2019-03-29T02:33:40.267Z,93.50
2019-03-29T02:36:08.695Z,93.60
2019-03-29T02:38:54.259Z,93.30
2019-03-29T02:41:07.297Z,93.40
2019-03-29T02:43:35.742Z,93.40
2019-03-29T02:46:05.408Z,93.50
2019-03-29T02:48:33.881Z,93.70
2019-03-29T02:51:02.313Z,93.70
2019-03-29T02:53:30.767Z,93.60
2019-03-29T02:55:59.232Z,93.70
2019-03-29T02:58:29.251Z,93.50
2019-03-29T03:00:57.700Z,93.60
2019-03-29T03:03:26.182Z,93.70
2019-03-29T03:05:54.625Z,93.80
2019-03-29T03:08:23.059Z,93.80
2019-03-29T03:10:51.525Z,93.80
2019-03-29T03:13:19.967Z,93.80
2019-03-29T03:15:48.407Z,93.80
2019-03-29T03:18:16.851Z,93.60
2019-03-29T03:20:45.307Z,93.70
2019-03-29T03:23:13.927Z,93.70
2019-03-29T03:25:42.427Z,93.70
2019-03-29T03:28:10.858Z,93.80
2019-03-29T03:30:39.294Z,93.90
2019-03-29T03:33:07.731Z,93.80
2019-03-29T03:35:36.192Z,93.80
2019-03-29T03:38:04.709Z,93.90
2019-03-29T03:40:33.162Z,93.90
2019-03-29T03:43:01.706Z,94.00
2019-03-29T03:45:31.675Z,93.80
2019-03-29T03:48:00.140Z,94.00
2019-03-29T03:50:38.990Z,94.10
2019-03-29T03:53:07.936Z,94.00
2019-03-29T03:55:38.794Z,94.00
2019-03-29T03:58:07.934Z,93.80
2019-03-29T04:00:53.952Z,94.00
2019-03-29T04:03:23.493Z,94.00
2019-03-29T04:05:52.009Z,94.00
2019-03-29T04:08:20.590Z,94.00
2019-03-29T04:10:49.097Z,94.00
2019-03-29T04:13:17.556Z,94.10
2019-03-29T04:15:46.080Z,94.00
2019-03-29T04:18:16.000Z,94.00
2019-03-29T04:20:44.776Z,94.10
2019-03-29T04:23:13.215Z,94.10
2019-03-29T04:25:41.865Z,94.10
2019-03-29T04:28:10.321Z,94.10
2019-03-29T04:30:38.838Z,94.10
2019-03-29T04:33:11.088Z,94.10
2019-03-29T04:35:37.901Z,94.10
2019-03-29T04:38:06.465Z,94.00
2019-03-29T04:40:34.957Z,93.80
2019-03-29T04:43:03.453Z,93.90
2019-03-29T04:45:31.902Z,94.00
2019-03-29T04:48:00.353Z,94.00
2019-03-29T04:50:28.801Z,93.90
2019-03-29T04:52:57.254Z,94.00
2019-03-29T04:55:25.691Z,94.00
2019-03-29T04:57:54.119Z,93.90
2019-03-29T05:00:22.566Z,93.80
2019-03-29T05:02:51.003Z,94.00
2019-03-29T05:05:19.460Z,94.10
2019-03-29T05:07:47.901Z,94.10
2019-03-29T05:10:21.594Z,94.10
2019-03-29T05:12:46.614Z,94.10
2019-03-29T05:15:15.119Z,94.10
2019-03-29T05:17:43.584Z,94.00
2019-03-29T05:20:12.145Z,94.00
2019-03-29T05:22:40.578Z,93.80
2019-03-29T05:25:09.064Z,93.80
2019-03-29T05:27:37.505Z,93.80
2019-03-29T05:30:06.973Z,93.80
2019-03-29T05:32:35.404Z,93.90
2019-03-29T05:35:05.303Z,93.60
2019-03-29T05:37:33.822Z,93.60
2019-03-29T05:40:02.265Z,93.30
2019-03-29T05:42:30.709Z,93.40
2019-03-29T05:44:59.224Z,93.40
2019-03-29T05:47:27.673Z,93.40
2019-03-29T05:49:56.098Z,93.50
2019-03-29T05:52:24.570Z,93.30
2019-03-29T05:54:53.005Z,93.40
2019-03-29T05:57:21.513Z,93.30
2019-03-29T05:59:49.982Z,93.10
2019-03-29T06:02:18.473Z,93.20
2019-03-29T06:04:46.910Z,92.70
2019-03-29T06:07:15.377Z,93.00
2019-03-29T06:09:43.825Z,92.70
2019-03-29T06:12:12.259Z,92.70
2019-03-29T06:14:40.690Z,92.60
2019-03-29T06:17:09.148Z,92.80
2019-03-29T06:19:37.613Z,92.80
2019-03-29T06:22:06.082Z,92.70
2019-03-29T06:24:34.526Z,92.60
2019-03-29T06:27:02.960Z,92.40
2019-03-29T06:29:31.394Z,92.80
2019-03-29T06:31:59.860Z,92.90
2019-03-29T06:34:28.303Z,92.80
2019-03-29T06:36:58.562Z,92.80
2019-03-29T06:39:29.542Z,92.50
2019-03-29T06:41:57.970Z,92.40
2019-03-29T06:44:26.436Z,92.50
2019-03-29T06:46:54.885Z,92.40
2019-03-29T06:49:23.306Z,92.50
2019-03-29T06:51:51.760Z,92.30
2019-03-29T06:54:20.264Z,92.00
2019-03-29T06:57:08.069Z,91.80
2019-03-29T06:59:36.587Z,91.70
2019-03-29T07:02:05.014Z,91.70
2019-03-29T07:04:33.465Z,91.50
2019-03-29T07:07:01.893Z,91.50
2019-03-29T07:09:30.370Z,91.30
2019-03-29T07:11:58.875Z,90.70
2019-03-29T07:14:27.328Z,90.60
2019-03-29T07:16:55.785Z,90.00
2019-03-29T07:19:24.253Z,88.80
2019-03-29T07:21:52.754Z,88.80
2019-03-29T07:24:21.197Z,87.50
2019-03-29T07:26:49.647Z,86.80
2019-03-29T07:29:18.158Z,87.10
2019-03-29T07:31:55.415Z,85.90
2019-03-29T07:34:23.863Z,85.10
2019-03-29T07:36:52.317Z,84.70
2019-03-29T07:39:20.738Z,84.60
2019-03-29T07:41:49.269Z,83.30
2019-03-29T07:44:17.702Z,82.70
2019-03-29T07:46:46.137Z,82.20
2019-03-29T07:49:14.601Z,81.30
2019-03-29T07:51:43.129Z,81.70
2019-03-29T07:54:11.630Z,81.30
2019-03-29T07:56:40.076Z,80.40
2019-03-29T07:59:08.511Z,80.00
2019-03-29T08:01:36.943Z,79.30
2019-03-29T08:04:05.480Z,78.90
2019-03-29T08:06:33.929Z,79.90
2019-03-29T08:09:02.435Z,80.00
2019-03-29T08:11:40.151Z,79.30
2019-03-29T08:14:01.110Z,78.60
2019-03-29T08:16:29.568Z,77.80
2019-03-29T08:18:58.087Z,76.40
2019-03-29T08:21:26.528Z,78.10
2019-03-29T08:23:55.072Z,76.50
2019-03-29T08:26:24.593Z,76.70
2019-03-29T08:28:53.052Z,76.00
2019-03-29T08:31:21.523Z,75.90
2019-03-29T08:33:49.985Z,77.10
2019-03-29T08:36:18.428Z,76.40
2019-03-29T08:38:46.875Z,76.90
2019-03-29T08:41:15.312Z,75.50
2019-03-29T08:44:03.146Z,76.40
2019-03-29T08:46:31.622Z,74.10
2019-03-29T08:49:00.074Z,75.10
2019-03-29T08:51:28.657Z,76.30
2019-03-29T08:53:57.108Z,73.20
2019-03-29T08:56:25.566Z,73.80
2019-03-29T08:58:54.003Z,73.80
2019-03-29T09:01:22.445Z,74.40
2019-03-29T09:04:04.599Z,74.80
2019-03-29T09:06:52.603Z,74.60
2019-03-29T09:09:12.550Z,75.10
2019-03-29T09:11:41.063Z,74.30
2019-03-29T09:14:09.529Z,73.30
2019-03-29T09:16:38.048Z,73.40
2019-03-29T09:19:06.515Z,74.50
2019-03-29T09:21:34.953Z,75.10
2019-03-29T09:24:03.394Z,74.20
2019-03-29T09:26:31.872Z,74.00
2019-03-29T09:29:00.318Z,74.00
2019-03-29T09:31:28.782Z,74.10
2019-03-29T09:33:58.707Z,74.30
2019-03-29T09:36:27.342Z,72.70
2019-03-29T09:38:55.845Z,72.80
2019-03-29T09:41:24.542Z,72.90
2019-03-29T09:43:54.496Z,73.50
2019-03-29T09:46:23.380Z,71.90
2019-03-29T09:48:51.895Z,73.30
2019-03-29T09:51:20.392Z,72.50
2019-03-29T09:53:48.881Z,71.20
2019-03-29T09:56:17.311Z,71.30
2019-03-29T09:58:45.757Z,71.80
2019-03-29T10:01:14.320Z,71.30
2019-03-29T10:03:42.797Z,69.60
2019-03-29T10:06:30.592Z,70.70
2019-03-29T10:08:59.040Z,71.80
2019-03-29T10:11:27.482Z,70.70
2019-03-29T10:13:55.991Z,70.60
2019-03-29T10:16:25.904Z,72.10
2019-03-29T10:18:54.591Z,72.30
2019-03-29T10:21:23.086Z,70.60
2019-03-29T10:23:51.532Z,71.30
2019-03-29T10:26:28.631Z,70.90
2019-03-29T10:28:57.102Z,72.10
2019-03-29T10:31:32.359Z,71.30
2019-03-29T10:33:57.248Z,72.20
2019-03-29T10:36:25.680Z,73.10
2019-03-29T10:38:54.122Z,72.00
2019-03-29T10:41:22.960Z,71.10
2019-03-29T10:43:51.453Z,71.30
2019-03-29T10:46:19.887Z,72.70
2019-03-29T10:48:48.318Z,70.30
2019-03-29T10:51:16.781Z,70.70
2019-03-29T10:53:45.209Z,69.80
2019-03-29T10:56:13.668Z,70.00
2019-03-29T10:58:44.778Z,71.20
2019-03-29T11:01:12.434Z,70.50
2019-03-29T11:03:40.903Z,70.50
2019-03-29T11:06:09.348Z,68.90
2019-03-29T11:08:37.810Z,68.20
2019-03-29T11:11:06.242Z,70.10
2019-03-29T11:13:34.674Z,69.50
2019-03-29T11:16:04.744Z,69.30
2019-03-29T11:22:11.398Z,68.30
2019-03-29T11:24:39.911Z,70.30
2019-03-29T11:37:58.825Z,67.80
2019-03-29T11:40:27.273Z,69.30
2019-03-29T11:42:55.789Z,67.30
2019-03-29T11:45:24.241Z,68.10
2019-03-29T11:48:06.846Z,67.30
2019-03-29T11:50:22.857Z,67.50
2019-03-29T11:52:51.318Z,66.40
2019-03-29T11:55:21.444Z,66.90
2019-03-29T11:57:49.902Z,67.50
2019-03-29T12:00:21.817Z,67.30
2019-03-29T12:02:50.252Z,68.70
2019-03-29T12:05:18.785Z,66.30
2019-03-29T12:07:47.219Z,66.30
2019-03-29T12:10:15.649Z,66.30
2019-03-29T12:12:44.159Z,64.60
2019-03-29T12:15:12.794Z,66.80
2019-03-29T12:17:41.247Z,66.80
2019-03-29T12:20:09.910Z,67.00
2019-03-29T12:22:38.374Z,65.50
2019-03-29T12:25:07.331Z,66.30
2019-03-29T12:27:35.800Z,67.00
2019-03-29T12:30:07.553Z,66.40
2019-03-29T12:32:36.086Z,66.70
2019-03-29T12:35:09.766Z,65.70
2019-03-29T12:37:36.798Z,65.50
2019-03-29T12:40:07.493Z,65.50
2019-03-29T12:42:35.944Z,66.70
2019-03-29T12:45:05.817Z,66.60
2019-03-29T12:47:34.289Z,65.40
2019-03-29T12:50:02.806Z,64.30
2019-03-29T12:52:31.249Z,65.00
2019-03-29T12:54:59.712Z,64.20
2019-03-29T12:57:28.229Z,64.10
2019-03-29T12:59:56.673Z,64.70
2019-03-29T13:02:25.121Z,65.80
2019-03-29T13:04:53.604Z,64.70
2019-03-29T13:07:22.265Z,65.20
2019-03-29T13:09:50.784Z,65.50
2019-03-29T13:12:19.684Z,65.00
2019-03-29T13:14:48.324Z,64.60
2019-03-29T13:17:17.067Z,64.80
2019-03-29T13:19:47.121Z,65.30
2019-03-29T13:22:15.796Z,65.60
2019-03-29T13:24:44.218Z,61.10
2019-03-29T13:27:12.958Z,60.00
2019-03-29T13:29:41.466Z,59.70
2019-03-29T13:32:09.916Z,62.40
2019-03-29T13:34:38.384Z,62.90
2019-03-29T13:37:06.830Z,62.90
2019-03-29T13:39:35.262Z,63.30
2019-03-29T13:42:03.778Z,63.00
2019-03-29T13:44:32.218Z,63.10
2019-03-29T13:47:00.645Z,62.90
2019-03-29T13:49:29.113Z,62.80
2019-03-29T13:51:57.547Z,62.20
2019-03-29T13:54:25.998Z,62.70
2019-03-29T13:56:54.507Z,62.00
2019-03-29T13:59:24.215Z,62.40
2019-03-29T14:01:52.649Z,60.90
2019-03-29T14:04:21.265Z,61.50
2019-03-29T14:06:49.729Z,59.70
2019-03-29T14:09:37.563Z,61.50
2019-03-29T14:12:05.981Z,61.10
2019-03-29T14:14:38.339Z,62.80
2019-03-29T14:17:06.275Z,62.60
2019-03-29T14:19:34.749Z,61.90
2019-03-29T14:22:03.193Z,61.30
2019-03-29T14:24:31.669Z,61.50
2019-03-29T14:27:00.120Z,62.30
2019-03-29T14:29:28.633Z,62.50
2019-03-29T14:31:57.107Z,62.20
2019-03-29T14:34:46.411Z,61.60
2019-03-29T14:37:15.084Z,62.10
2019-03-29T14:39:44.215Z,61.00
2019-03-29T14:42:12.996Z,61.90
2019-03-29T14:44:51.695Z,58.60
2019-03-29T14:47:11.727Z,57.80
2019-03-29T14:49:40.154Z,58.80
2019-03-29T14:52:08.591Z,60.00
2019-03-29T14:54:37.065Z,60.70
2019-03-29T14:57:05.774Z,59.70
2019-03-29T14:59:34.318Z,61.90
2019-03-29T15:02:02.824Z,62.90
2019-03-29T15:04:31.258Z,60.00
2019-03-29T15:06:59.774Z,58.10
2019-03-29T15:09:28.282Z,61.70
2019-03-29T15:11:56.803Z,58.30
2019-03-29T15:14:25.229Z,57.60
2019-03-29T15:16:53.687Z,55.50
2019-03-29T15:19:22.157Z,56.30
2019-03-29T15:21:50.601Z,57.10
2019-03-29T15:24:19.125Z,58.50
2019-03-29T15:26:47.575Z,57.60
2019-03-29T15:29:16.027Z,58.00
2019-03-29T15:31:44.513Z,59.00
2019-03-29T15:34:12.946Z,58.70
2019-03-29T15:36:41.396Z,59.20
2019-03-29T15:39:10.005Z,57.80
2019-03-29T15:41:38.422Z,57.60
2019-03-29T15:44:06.870Z,59.30
2019-03-29T15:46:35.332Z,60.90
2019-03-29T15:49:03.788Z,57.20
2019-03-29T15:51:32.317Z,55.80
2019-03-29T15:54:00.746Z,55.50
2019-03-29T15:56:29.188Z,56.70
2019-03-29T15:58:57.665Z,58.00
2019-03-29T16:01:26.118Z,55.20
2019-03-29T16:03:54.572Z,55.80
2019-03-29T16:06:22.998Z,56.50
2019-03-29T16:08:51.434Z,56.80
2019-03-29T16:11:22.410Z,57.80
2019-03-29T16:13:50.052Z,56.40
2019-03-29T16:16:18.573Z,57.30
2019-03-29T16:18:47.011Z,58.20
2019-03-29T16:21:15.446Z,58.00
2019-03-29T16:23:43.884Z,57.70
2019-03-29T16:26:12.322Z,58.10
2019-03-29T16:28:40.750Z,58.30
2019-03-29T16:31:09.280Z,56.80
2019-03-29T16:33:37.714Z,56.50
2019-03-29T16:36:06.173Z,56.40
2019-03-29T16:38:34.629Z,57.20
2019-03-29T16:41:03.078Z,57.10
2019-03-29T16:43:31.544Z,56.10
2019-03-29T16:46:00.315Z,56.70
2019-03-29T16:48:28.773Z,56.60
2019-03-29T16:50:57.194Z,57.00
2019-03-29T16:53:25.671Z,56.40
2019-03-29T16:55:54.118Z,56.70
2019-03-29T16:58:22.559Z,60.10
2019-03-29T17:00:51.016Z,57.40
2019-03-29T17:03:19.438Z,56.00
2019-03-29T17:05:47.877Z,57.40
2019-03-29T17:08:16.332Z,57.10
2019-03-29T17:10:44.790Z,56.20
2019-03-29T17:13:13.206Z,56.30
2019-03-29T17:15:41.661Z,56.40
2019-03-29T17:18:10.109Z,56.70
2019-03-29T17:20:38.553Z,62.10
2019-03-29T17:23:06.982Z,66.90
2019-03-29T17:25:35.418Z,61.80
2019-03-29T17:28:03.842Z,62.80
2019-03-29T17:30:38.668Z,57.40
2019-03-29T17:33:07.120Z,63.00
2019-03-29T17:35:35.619Z,62.00
2019-03-29T17:38:04.530Z,61.10
2019-03-29T17:40:32.958Z,60.70
2019-03-29T17:43:01.466Z,60.00
2019-03-29T17:45:29.925Z,63.00
2019-03-29T17:47:58.375Z,57.80
2019-03-29T17:50:26.829Z,59.50
2019-03-29T17:52:55.257Z,67.80
2019-03-29T17:55:23.714Z,69.10
2019-03-29T17:57:52.160Z,68.00
2019-03-29T18:00:24.816Z,69.20
2019-03-29T18:02:53.501Z,69.10
2019-03-29T18:05:22.870Z,65.30
2019-03-29T18:07:51.405Z,62.60
2019-03-29T18:10:20.210Z,68.40
2019-03-29T18:12:48.881Z,75.10
2019-03-29T18:15:17.895Z,72.20
2019-03-29T18:17:46.573Z,60.00
2019-03-29T18:20:16.135Z,66.60
2019-03-29T18:22:44.656Z,62.20
2019-03-29T18:25:13.235Z,64.00
2019-03-29T18:27:41.771Z,70.00
2019-03-29T18:30:12.056Z,73.60
2019-03-29T18:32:40.502Z,76.90
2019-03-29T18:35:09.992Z,72.20
2019-03-29T18:37:38.867Z,72.00
2019-03-29T18:40:10.374Z,73.80
2019-03-29T18:42:38.802Z,67.50
2019-03-29T18:45:28.125Z,74.80
2019-03-29T18:47:56.646Z,72.10
2019-03-29T18:50:25.051Z,71.90
2019-03-29T18:52:53.510Z,67.30
2019-03-29T18:55:21.939Z,70.40
2019-03-29T18:57:50.396Z,75.00
2019-03-29T19:00:30.106Z,78.30
2019-03-29T19:02:58.549Z,76.30
2019-03-29T19:05:28.028Z,68.30
2019-03-29T19:07:56.458Z,74.60
2019-03-29T19:10:24.924Z,75.50
2019-03-29T19:12:53.359Z,75.90
2019-03-29T19:15:22.176Z,74.80
2019-03-29T19:17:50.835Z,74.30
2019-03-29T19:20:27.344Z,72.60
2019-03-29T19:22:49.541Z,75.00
2019-03-29T19:25:18.055Z,75.20
2019-03-29T19:27:46.512Z,73.90
2019-03-29T19:30:16.064Z,75.30
2019-03-29T19:32:45.563Z,75.30
2019-03-29T19:35:16.855Z,76.70
2019-03-29T19:37:47.235Z,75.50
2019-03-29T19:40:17.725Z,74.10
2019-03-29T19:42:47.995Z,74.10
2019-03-29T19:45:18.222Z,76.00
2019-03-29T19:47:50.226Z,74.30
2019-03-29T19:50:22.236Z,74.20
2019-03-29T19:52:54.548Z,74.50
2019-03-29T19:55:23.321Z,75.60
2019-03-29T19:57:51.774Z,73.40
2019-03-29T20:00:23.372Z,75.60
2019-03-29T20:02:51.955Z,70.60
2019-03-29T20:05:25.821Z,73.30
2019-03-29T20:07:55.207Z,73.80
2019-03-29T20:10:23.798Z,74.80
2019-03-29T20:12:52.298Z,74.20
2019-03-29T20:15:20.759Z,71.00
2019-03-29T20:17:49.271Z,75.30
2019-03-29T20:20:22.822Z,73.40
2019-03-29T20:22:52.609Z,75.60
2019-03-29T20:25:21.068Z,72.50
2019-03-29T20:27:49.513Z,74.40
2019-03-29T20:30:18.136Z,75.30
2019-03-29T20:32:46.580Z,74.70
2019-03-29T20:35:15.103Z,77.50
2019-03-29T20:37:44.112Z,78.70
2019-03-29T20:40:12.695Z,75.40
2019-03-29T20:42:41.136Z,75.00
2019-03-29T20:45:09.723Z,79.40
2019-03-29T20:47:42.355Z,76.30
2019-03-29T20:50:09.600Z,78.80
2019-03-29T20:52:38.064Z,77.60
2019-03-29T20:55:07.370Z,79.90
2019-03-29T20:57:35.831Z,75.90
2019-03-29T21:00:08.155Z,80.70
2019-03-29T21:02:36.690Z,80.70
2019-03-29T21:05:08.568Z,81.70
2019-03-29T21:07:37.100Z,82.10
2019-03-29T21:10:55.520Z,82.00
2019-03-29T21:13:32.961Z,81.50
2019-03-29T21:16:57.142Z,81.20
2019-03-29T21:19:55.718Z,80.60
2019-03-29T21:22:40.249Z,79.70
2019-03-29T21:25:19.280Z,79.70
2019-03-29T21:27:50.695Z,79.70
2019-03-29T21:30:19.475Z,79.10
2019-03-29T21:32:47.925Z,78.50
2019-03-29T21:35:28.322Z,79.30
2019-03-29T21:37:57.071Z,79.40
2019-03-29T21:40:25.566Z,79.10
2019-03-29T21:42:54.022Z,79.20
2019-03-29T21:45:28.590Z,79.50
2019-03-29T21:48:02.281Z,79.20
2019-03-29T21:50:22.960Z,79.30
2019-03-29T21:52:51.410Z,79.40
2019-03-29T21:55:19.869Z,79.40
2019-03-29T21:57:48.364Z,79.80
2019-03-29T22:00:17.642Z,79.30
2019-03-29T22:02:46.172Z,79.20
2019-03-29T22:05:14.700Z,79.60
2019-03-29T22:07:43.199Z,79.20
2019-03-29T22:10:12.419Z,79.80
2019-03-29T22:12:43.068Z,79.20
2019-03-29T22:15:11.321Z,79.40
2019-03-29T22:17:39.762Z,79.50
2019-03-29T22:20:09.060Z,79.70
2019-03-29T22:22:39.514Z,79.10
2019-03-29T22:25:08.672Z,78.60
2019-03-29T22:27:37.305Z,79.70
2019-03-29T22:30:09.947Z,79.30
2019-03-29T22:32:38.383Z,79.70
2019-03-29T22:35:07.456Z,79.70
2019-03-29T22:37:35.907Z,77.70
2019-03-29T22:40:06.974Z,78.90
2019-03-29T22:42:35.406Z,80.30
2019-03-29T22:45:05.529Z,81.10
2019-03-29T22:47:33.959Z,81.10
2019-03-29T22:50:02.401Z,80.40
2019-03-29T22:52:30.909Z,80.70
2019-03-29T22:54:59.385Z,80.30
2019-03-29T22:57:27.832Z,81.20
2019-03-29T22:59:57.283Z,81.10
2019-03-29T23:02:25.718Z,81.60
2019-03-29T23:04:54.176Z,81.20
2019-03-29T23:07:22.614Z,81.10
2019-03-29T23:09:51.042Z,81.00
2019-03-29T23:12:19.523Z,81.10
2019-03-29T23:14:47.997Z,81.20
2019-03-29T23:17:16.520Z,81.40
2019-03-29T23:19:45.026Z,80.90
2019-03-29T23:22:32.052Z,80.60
2019-03-29T23:25:00.590Z,81.10
2019-03-29T23:27:29.022Z,80.90
2019-03-29T23:29:57.479Z,81.40
2019-03-29T23:32:25.933Z,81.20
2019-03-29T23:34:54.377Z,81.40
2019-03-29T23:37:22.837Z,81.40
2019-03-29T23:39:51.258Z,81.00
2019-03-29T23:42:19.722Z,80.50
2019-03-29T23:44:48.185Z,81.40
2019-03-29T23:47:16.644Z,80.90
2019-03-29T23:49:45.142Z,81.90
2019-03-29T23:52:13.583Z,82.00
2019-03-29T23:54:42.045Z,81.90
2019-03-29T23:57:10.496Z,82.30
2019-03-29T23:59:38.937Z,81.50
